Bigler, PA (16825)

5:30 PM EDT on October 01, 2016 (GMT -0400)
Clearfield-Lawrence | | Change Station

Elev 1516 ft 41.05 °N, 78.41 °W | Updated 36 minutes ago

Overcast
Overcast
62 °F
Feels Like 62 °F
N
6
Wind Variable Wind from East

Today
High -- | Low -- °F
--% Chance of Precip.
Yesterday
High -- | Low -- °F
Precip. -- in
Pressure 30.09 in
Visibility 10.0 miles
Clouds Overcast 1400 ft
Dew Point 59 °F
Humidity 90%
Rainfall 0.40 in
Snow Depth Not available.
7:10 AM 6:54 PM
New Moon, 1% visible
METAR KFIG 012054Z AUTO 08005KT 10SM OVC014 17/15 A3009 RMK AO2 SLP187 T01670150 56013 $
Pressure 30.09 in
Visibility 10.0 miles
Clouds Overcast 1400 ft
Dew Point 59 °F
Humidity 90%
Rainfall 0.40 in
Snow Depth Not available.
7:10 AM 6:54 PM
New Moon, 1% visible
METAR KFIG 012054Z AUTO 08005KT 10SM OVC014 17/15 A3009 RMK AO2 SLP187 T01670150 56013 $

10-Day Weather Forecast

Almanac

Astronomy

Oct. 01, 2016 Rise Set
Actual Time
Civil Twilight
Nautical Twilight
Astronomical Twilight
Moon
Length of Visible Light
Length of Day
Tomorrow will be .
, % of the Moon is Illuminated

Today's Extremes

State Highs State Lows

Community

WunderPhotos

Upload Photos

1,943,026 photos uploaded!

WunderBlog® & News

Nearby

Air Quality

  Air Quality AQ Index Pollutant
Not available.

Snow Depth

Station Depth Elevation

Earthquake Activity

City Distance Mag. Time & Date
Minimum magnitude displayed is 2.5.

Coastal Water Temperatures

Place Temperature

Stations

Nearby Weather Stations

Station Location Temp. Windchill Dew Point Humidity Wind Precip. Elev Updated Type
                   

Watches & Warnings

There are currently no watches in effect.